createdAt,value
2022-11-29T00:01:57.901Z,12.30
2022-11-29T00:04:26.712Z,12.32
2022-11-29T00:06:55.290Z,11.10
2022-11-29T00:09:25.295Z,11.55
2022-11-29T00:12:11.435Z,12.25
2022-11-29T00:14:41.184Z,11.80
2022-11-29T00:17:10.236Z,11.65
2022-11-29T00:19:39.079Z,11.88
2022-11-29T00:22:07.855Z,11.95
2022-11-29T00:24:38.089Z,12.57
2022-11-29T00:27:06.741Z,12.82
2022-11-29T00:29:35.746Z,11.60
2022-11-29T00:32:04.851Z,12.35
2022-11-29T00:34:33.478Z,12.73
2022-11-29T00:37:02.033Z,12.10
2022-11-29T00:39:30.748Z,12.52
2022-11-29T00:42:00.674Z,12.38
2022-11-29T00:44:29.447Z,12.70
2022-11-29T00:46:58.006Z,11.90
2022-11-29T00:49:26.612Z,13.52
2022-11-29T00:51:55.382Z,12.55
2022-11-29T00:54:24.089Z,12.73
2022-11-29T00:56:52.927Z,12.50
2022-11-29T00:59:22.946Z,12.10
2022-11-29T01:01:51.573Z,12.88
2022-11-29T01:04:20.741Z,11.82
2022-11-29T01:06:52.230Z,13.00
2022-11-29T01:09:21.558Z,12.38
2022-11-29T01:11:51.107Z,12.70
2022-11-29T01:14:19.834Z,12.13
2022-11-29T01:16:49.951Z,12.98
2022-11-29T01:19:18.701Z,13.77
2022-11-29T01:21:47.292Z,13.45
2022-11-29T01:24:16.194Z,13.40
2022-11-29T01:26:44.750Z,12.57
2022-11-29T01:29:15.437Z,12.32
2022-11-29T01:31:44.037Z,12.63
2022-11-29T01:34:14.146Z,12.40
2022-11-29T01:36:42.792Z,12.75
2022-11-29T01:39:12.474Z,12.40
2022-11-29T01:41:41.404Z,12.52
2022-11-29T01:44:42.778Z,12.60
2022-11-29T01:47:12.836Z,12.90
2022-11-29T01:49:45.226Z,12.90
2022-11-29T01:52:18.799Z,13.00
2022-11-29T01:54:49.436Z,12.82
2022-11-29T01:57:18.717Z,12.02
2022-11-29T01:59:49.076Z,13.13
2022-11-29T02:02:19.796Z,13.57
2022-11-29T02:04:51.490Z,12.07
2022-11-29T02:07:20.533Z,12.02
2022-11-29T02:09:49.148Z,13.43
2022-11-29T02:12:24.796Z,13.10
2022-11-29T02:15:08.257Z,13.65
2022-11-29T02:17:44.602Z,12.25
2022-11-29T02:20:37.157Z,12.38
2022-11-29T02:23:24.703Z,12.25
2022-11-29T02:26:02.608Z,12.63
2022-11-29T02:28:49.710Z,12.05
2022-11-29T02:31:57.406Z,12.30
2022-11-29T02:34:48.188Z,13.23
2022-11-29T02:37:31.271Z,13.32
2022-11-29T02:40:12.013Z,12.70
2022-11-29T02:43:21.906Z,12.00
2022-11-29T02:46:00.969Z,13.52
2022-11-29T02:48:41.506Z,13.15
2022-11-29T02:51:15.256Z,12.88
2022-11-29T02:53:48.759Z,12.07
2022-11-29T02:56:24.687Z,12.48
2022-11-29T02:58:57.938Z,12.00
2022-11-29T03:01:31.108Z,12.80
2022-11-29T03:04:06.050Z,12.32
2022-11-29T03:06:43.540Z,12.20
2022-11-29T03:09:18.043Z,11.57
2022-11-29T03:11:51.959Z,11.82
2022-11-29T03:14:26.430Z,12.10
2022-11-29T03:17:02.579Z,11.63
2022-11-29T03:19:47.992Z,11.07
2022-11-29T03:24:55.453Z,12.00
2022-11-29T03:27:30.723Z,12.07
2022-11-29T03:30:01.522Z,11.88
2022-11-29T03:32:34.539Z,12.30
2022-11-29T03:35:08.142Z,12.25
2022-11-29T03:37:45.945Z,12.25
2022-11-29T03:40:16.866Z,12.23
2022-11-29T03:42:52.631Z,12.15
2022-11-29T03:45:26.410Z,12.85
2022-11-29T03:47:59.202Z,11.85
2022-11-29T03:50:33.678Z,12.60
2022-11-29T03:53:09.026Z,11.95
2022-11-29T03:55:50.559Z,11.80
2022-11-29T03:58:47.777Z,11.88
2022-11-29T04:01:49.402Z,10.77
2022-11-29T04:04:37.797Z,11.18
2022-11-29T04:07:15.022Z,11.90
2022-11-29T04:09:58.425Z,12.43
2022-11-29T04:12:45.505Z,12.43
2022-11-29T04:16:07.834Z,10.93
2022-11-29T04:19:06.629Z,10.95
2022-11-29T04:21:56.879Z,11.10
2022-11-29T04:24:58.244Z,10.07
2022-11-29T04:27:49.692Z,10.13
2022-11-29T04:30:22.833Z,12.23
2022-11-29T04:33:18.395Z,10.88
2022-11-29T04:35:57.089Z,9.88
2022-11-29T04:38:44.470Z,10.82
2022-11-29T04:41:29.033Z,10.40
2022-11-29T04:44:17.596Z,22.50
2022-11-29T04:47:06.964Z,13.90
2022-11-29T04:49:54.558Z,10.73
2022-11-29T04:52:51.811Z,11.00
2022-11-29T04:55:31.044Z,9.45
2022-11-29T04:58:08.126Z,10.07
2022-11-29T05:00:44.183Z,9.80
2022-11-29T05:03:18.020Z,9.45
2022-11-29T05:05:51.929Z,11.40
2022-11-29T05:08:26.237Z,11.60
2022-11-29T05:11:03.345Z,11.02
2022-11-29T05:13:43.688Z,9.38
2022-11-29T05:16:22.919Z,8.98
2022-11-29T05:19:06.005Z,9.18
2022-11-29T05:21:43.616Z,8.40
2022-11-29T05:24:19.638Z,7.78
2022-11-29T05:26:52.395Z,6.82
2022-11-29T05:29:27.341Z,6.97
2022-11-29T05:34:42.019Z,7.32
2022-11-29T05:37:20.612Z,5.43
2022-11-29T05:40:02.913Z,5.30
2022-11-29T05:42:52.342Z,5.40
2022-11-29T05:45:26.926Z,5.32
2022-11-29T05:48:00.590Z,4.97
2022-11-29T05:50:34.379Z,5.45
2022-11-29T05:53:18.271Z,5.95
2022-11-29T05:55:56.010Z,5.00
2022-11-29T05:58:30.918Z,5.18
2022-11-29T06:03:36.626Z,4.82
2022-11-29T06:06:09.186Z,5.18
2022-11-29T06:08:43.624Z,4.80
2022-11-29T06:11:17.249Z,5.00
2022-11-29T06:13:56.888Z,5.75
2022-11-29T06:16:42.583Z,6.20
2022-11-29T06:19:35.761Z,5.90
2022-11-29T06:22:16.860Z,5.68
2022-11-29T06:24:58.473Z,5.15
2022-11-29T06:27:49.241Z,6.25
2022-11-29T06:30:20.896Z,5.82
2022-11-29T06:32:55.538Z,5.72
2022-11-29T06:35:37.065Z,6.32
2022-11-29T06:38:11.012Z,7.43
2022-11-29T06:40:40.168Z,7.43
2022-11-29T06:43:09.288Z,8.45
2022-11-29T06:45:38.411Z,8.05
2022-11-29T06:48:11.159Z,8.35
2022-11-29T06:50:48.887Z,8.40
2022-11-29T06:53:23.643Z,8.70
2022-11-29T06:55:59.130Z,8.68
2022-11-29T06:58:39.453Z,10.10
2022-11-29T07:01:17.304Z,9.90
2022-11-29T07:04:08.895Z,9.95
2022-11-29T07:06:39.157Z,10.88
2022-11-29T07:09:13.376Z,10.02
2022-11-29T07:11:43.278Z,10.57
2022-11-29T07:14:12.782Z,10.48
2022-11-29T07:16:52.066Z,10.25
2022-11-29T07:19:32.764Z,9.90
2022-11-29T07:22:06.782Z,9.95
2022-11-29T07:24:45.767Z,9.65
2022-11-29T07:27:20.112Z,9.27
2022-11-29T07:30:05.084Z,10.45
2022-11-29T07:32:47.311Z,10.20
2022-11-29T07:35:31.322Z,10.55
2022-11-29T07:38:08.748Z,10.70
2022-11-29T07:40:44.866Z,10.38
2022-11-29T07:43:22.835Z,11.65
2022-11-29T07:45:52.446Z,10.23
2022-11-29T07:48:21.065Z,10.05
2022-11-29T07:50:51.193Z,10.00
2022-11-29T07:53:21.589Z,10.55
2022-11-29T07:55:50.631Z,9.77
2022-11-29T07:58:20.029Z,9.82
2022-11-29T08:00:48.809Z,8.98
2022-11-29T08:03:19.537Z,9.52
2022-11-29T08:05:50.683Z,8.32
2022-11-29T08:08:19.332Z,8.32
2022-11-29T08:10:48.292Z,7.88
2022-11-29T08:13:17.157Z,7.68
2022-11-29T08:15:46.508Z,7.03
2022-11-29T08:18:15.516Z,6.40
2022-11-29T08:20:46.107Z,6.22
2022-11-29T08:23:16.102Z,5.70
2022-11-29T08:25:45.806Z,6.63
2022-11-29T08:28:14.585Z,6.63
2022-11-29T08:30:43.230Z,5.90
2022-11-29T08:33:11.879Z,6.07
2022-11-29T08:35:42.130Z,6.40
2022-11-29T08:38:10.874Z,6.68
2022-11-29T08:40:41.161Z,5.45
2022-11-29T08:43:09.752Z,5.95
2022-11-29T08:45:38.688Z,6.57
2022-11-29T08:48:07.872Z,5.68
2022-11-29T08:50:36.813Z,5.40
2022-11-29T08:53:23.099Z,5.22
2022-11-29T08:55:53.446Z,5.72
2022-11-29T08:58:22.111Z,5.50
2022-11-29T09:00:50.941Z,5.95
2022-11-29T09:03:37.159Z,5.07
2022-11-29T09:06:12.444Z,4.80
2022-11-29T09:08:43.700Z,4.80
2022-11-29T09:11:15.759Z,5.47
2022-11-29T09:13:45.946Z,5.57
2022-11-29T09:16:17.858Z,5.70
2022-11-29T09:18:51.812Z,5.50
2022-11-29T09:21:20.952Z,7.32
2022-11-29T09:23:49.908Z,7.63
2022-11-29T09:26:20.941Z,7.53
2022-11-29T09:28:50.027Z,7.25
2022-11-29T09:31:20.031Z,7.30
2022-11-29T09:33:48.974Z,7.90
2022-11-29T09:36:18.012Z,8.48
2022-11-29T09:38:46.933Z,9.68
2022-11-29T09:41:29.364Z,8.68
2022-11-29T09:44:07.056Z,9.40
2022-11-29T09:46:42.396Z,9.07
2022-11-29T09:49:28.077Z,10.15
2022-11-29T09:52:02.126Z,9.60
2022-11-29T09:54:39.086Z,10.40
2022-11-29T09:57:10.988Z,10.43
2022-11-29T09:59:43.316Z,10.55
2022-11-29T10:02:21.733Z,9.75
2022-11-29T10:04:53.507Z,10.20
2022-11-29T10:07:26.539Z,10.23
2022-11-29T10:09:58.429Z,9.15
2022-11-29T10:12:35.243Z,9.23
2022-11-29T10:15:09.153Z,8.25
2022-11-29T10:17:41.811Z,8.88
2022-11-29T10:20:16.547Z,7.53
2022-11-29T10:22:49.570Z,8.98
2022-11-29T10:25:23.790Z,7.45
2022-11-29T10:27:54.415Z,7.95
2022-11-29T10:30:23.577Z,7.70
2022-11-29T10:32:56.480Z,7.55
2022-11-29T10:35:25.602Z,6.85
2022-11-29T10:38:29.253Z,7.05
2022-11-29T10:40:47.855Z,6.65
2022-11-29T10:43:17.950Z,6.47
2022-11-29T10:45:50.398Z,7.57
2022-11-29T10:48:20.560Z,7.93
2022-11-29T10:50:51.369Z,5.93
2022-11-29T10:53:23.943Z,6.30
2022-11-29T10:55:56.605Z,6.40
2022-11-29T10:58:28.944Z,6.68
2022-11-29T11:00:59.840Z,5.50
2022-11-29T11:03:37.541Z,6.07
2022-11-29T11:06:12.759Z,6.47
2022-11-29T11:08:44.664Z,6.22
2022-11-29T11:11:13.958Z,7.05
2022-11-29T11:13:44.338Z,6.63
2022-11-29T11:16:18.619Z,7.53
2022-11-29T11:18:48.958Z,6.45
2022-11-29T11:21:20.574Z,6.82
2022-11-29T11:23:55.696Z,7.32
2022-11-29T11:28:58.063Z,6.55
2022-11-29T11:31:32.898Z,6.72
2022-11-29T11:36:45.070Z,6.50
2022-11-29T11:39:19.490Z,7.50
2022-11-29T11:42:06.410Z,8.05
2022-11-29T11:44:57.998Z,8.05
2022-11-29T11:47:28.270Z,7.53
2022-11-29T11:50:06.815Z,7.90
2022-11-29T11:52:41.170Z,7.38
2022-11-29T11:55:32.097Z,6.53
2022-11-29T11:58:09.779Z,5.97
2022-11-29T12:03:39.611Z,6.88
2022-11-29T12:06:26.114Z,6.03
2022-11-29T12:08:58.959Z,6.32
2022-11-29T12:11:28.158Z,5.88
2022-11-29T12:13:59.141Z,5.78
2022-11-29T12:16:32.595Z,6.07
2022-11-29T12:19:04.572Z,5.60
2022-11-29T12:21:36.215Z,6.43
2022-11-29T12:24:12.522Z,6.05
2022-11-29T12:26:58.971Z,6.10
2022-11-29T12:29:33.539Z,6.18
2022-11-29T12:32:15.730Z,6.38
2022-11-29T12:34:53.468Z,6.78
2022-11-29T12:37:26.174Z,5.80
2022-11-29T12:39:58.852Z,6.65
2022-11-29T12:42:37.190Z,6.63
2022-11-29T12:45:20.923Z,6.28
2022-11-29T12:47:56.380Z,6.85
2022-11-29T12:50:33.749Z,6.32
2022-11-29T12:53:20.148Z,5.35
2022-11-29T12:55:58.398Z,5.78
2022-11-29T12:58:31.102Z,6.07
2022-11-29T13:01:07.290Z,6.35
2022-11-29T13:03:43.064Z,5.80
2022-11-29T13:06:19.159Z,5.80
2022-11-29T13:08:55.207Z,6.03
2022-11-29T13:11:26.603Z,6.30
2022-11-29T13:14:20.211Z,6.63
2022-11-29T13:16:53.281Z,5.80
2022-11-29T13:19:29.885Z,5.30
2022-11-29T13:22:06.302Z,5.65
2022-11-29T13:24:42.562Z,6.18
2022-11-29T13:27:16.106Z,5.75
2022-11-29T13:29:45.199Z,5.22
2022-11-29T13:32:27.999Z,5.55
2022-11-29T13:35:02.196Z,5.63
2022-11-29T13:37:37.107Z,5.85
2022-11-29T13:40:17.426Z,5.63
2022-11-29T13:42:50.931Z,5.82
2022-11-29T13:45:24.267Z,6.18
2022-11-29T13:47:54.890Z,6.70
2022-11-29T13:50:42.410Z,5.65
2022-11-29T13:53:16.657Z,5.90
2022-11-29T13:55:46.903Z,6.55
2022-11-29T13:58:36.667Z,6.00
2022-11-29T14:01:09.598Z,6.00
2022-11-29T14:03:40.034Z,5.80
2022-11-29T14:06:15.599Z,5.90
2022-11-29T14:09:19.456Z,5.65
2022-11-29T14:11:50.208Z,6.18
2022-11-29T14:14:26.157Z,6.20
2022-11-29T14:16:57.410Z,5.85
2022-11-29T14:19:33.081Z,5.95
2022-11-29T14:22:28.066Z,6.43
2022-11-29T14:25:49.579Z,6.47
2022-11-29T14:28:30.598Z,6.70
2022-11-29T14:31:01.592Z,6.78
2022-11-29T14:33:40.012Z,7.47
2022-11-29T14:36:31.871Z,8.23
2022-11-29T14:39:21.544Z,7.40
2022-11-29T14:41:57.073Z,6.90
2022-11-29T14:44:28.418Z,6.70
2022-11-29T14:47:05.139Z,6.38
2022-11-29T14:49:39.934Z,6.18
2022-11-29T14:52:21.526Z,6.18
2022-11-29T14:54:58.121Z,6.18
2022-11-29T14:58:06.393Z,6.38
2022-11-29T15:00:56.245Z,5.97
2022-11-29T15:03:34.866Z,5.47
2022-11-29T15:06:13.030Z,6.32
2022-11-29T15:08:50.116Z,5.68
2022-11-29T15:11:31.817Z,5.70
2022-11-29T15:14:05.635Z,5.68
2022-11-29T15:16:57.206Z,5.13
2022-11-29T15:19:50.447Z,6.43
2022-11-29T15:22:20.578Z,6.05
2022-11-29T15:24:54.487Z,5.40
2022-11-29T15:27:24.977Z,6.30
2022-11-29T15:29:54.131Z,5.97
2022-11-29T15:32:26.191Z,5.47
2022-11-29T15:34:56.274Z,6.70
2022-11-29T15:37:26.827Z,8.07
2022-11-29T15:40:05.967Z,28.80
2022-11-29T15:42:43.376Z,11.05
2022-11-29T15:45:33.376Z,9.82
2022-11-29T15:48:18.935Z,8.85
2022-11-29T15:50:53.314Z,8.80
2022-11-29T15:53:26.907Z,7.32
2022-11-29T15:55:57.740Z,7.53
2022-11-29T15:58:30.301Z,6.75
2022-11-29T16:01:00.334Z,5.90
2022-11-29T16:03:31.837Z,6.20
2022-11-29T16:06:08.293Z,6.70
2022-11-29T16:08:41.064Z,6.30
2022-11-29T16:11:15.297Z,6.60
2022-11-29T16:14:02.491Z,6.35
2022-11-29T16:16:32.791Z,6.13
2022-11-29T16:19:10.945Z,6.18
2022-11-29T16:21:39.676Z,5.70
2022-11-29T16:24:21.877Z,6.20
2022-11-29T16:26:51.903Z,6.57
2022-11-29T16:29:25.425Z,6.20
2022-11-29T16:31:54.842Z,6.35
2022-11-29T16:34:27.819Z,6.97
2022-11-29T16:37:03.604Z,7.07
2022-11-29T16:39:32.475Z,8.32
2022-11-29T16:42:08.745Z,7.80
2022-11-29T16:45:16.643Z,7.55
2022-11-29T16:47:52.494Z,7.25
2022-11-29T16:50:22.902Z,7.20
2022-11-29T16:52:56.401Z,7.20
2022-11-29T16:55:25.893Z,6.90
2022-11-29T16:57:54.582Z,6.95
2022-11-29T17:00:31.312Z,7.45
2022-11-29T17:03:00.200Z,7.90
2022-11-29T17:05:29.287Z,8.32
2022-11-29T17:07:58.293Z,8.13
2022-11-29T17:10:28.987Z,7.68
2022-11-29T17:12:57.738Z,7.88
2022-11-29T17:15:27.875Z,8.23
2022-11-29T17:17:56.587Z,9.98
2022-11-29T17:20:25.392Z,8.98
2022-11-29T17:22:54.166Z,11.60
2022-11-29T17:25:22.775Z,13.95
2022-11-29T17:27:51.527Z,11.75
2022-11-29T17:30:20.345Z,12.32
2022-11-29T17:32:50.665Z,29.05
2022-11-29T17:35:19.334Z,14.30
2022-11-29T17:37:48.154Z,11.60
2022-11-29T17:40:17.054Z,11.10
2022-11-29T17:42:46.131Z,11.48
2022-11-29T17:45:14.936Z,10.65
2022-11-29T17:47:43.724Z,11.30
2022-11-29T17:50:14.035Z,11.93
2022-11-29T17:52:42.784Z,11.77
2022-11-29T17:55:11.885Z,11.27
2022-11-29T17:57:40.477Z,12.77
2022-11-29T18:00:12.986Z,11.88
2022-11-29T18:02:41.701Z,11.75
2022-11-29T18:05:12.478Z,26.65
2022-11-29T18:07:58.203Z,13.48
2022-11-29T18:10:28.165Z,13.60
2022-11-29T18:12:56.985Z,11.90
2022-11-29T18:15:25.667Z,12.25
2022-11-29T18:17:54.372Z,13.65
2022-11-29T18:20:23.021Z,13.43
2022-11-29T18:22:53.492Z,13.50
2022-11-29T18:25:39.589Z,14.82
2022-11-29T18:28:11.416Z,14.93
2022-11-29T18:30:40.451Z,14.73
2022-11-29T18:33:09.140Z,14.20
2022-11-29T18:35:38.110Z,14.07
2022-11-29T18:38:16.458Z,14.50
2022-11-29T18:40:46.463Z,14.77
2022-11-29T18:43:17.815Z,14.68
2022-11-29T18:45:46.814Z,13.63
2022-11-29T18:48:15.424Z,17.52
2022-11-29T18:50:44.232Z,16.33
2022-11-29T18:53:14.528Z,15.55
2022-11-29T18:55:43.235Z,17.30
2022-11-29T18:58:11.820Z,15.98
2022-11-29T19:00:40.845Z,15.88
2022-11-29T19:03:09.547Z,21.58
2022-11-29T19:05:42.456Z,25.40
2022-11-29T19:08:11.299Z,15.65
2022-11-29T19:10:41.346Z,15.73
2022-11-29T19:13:10.010Z,16.23
2022-11-29T19:15:38.872Z,17.25
2022-11-29T19:18:07.531Z,15.75
2022-11-29T19:20:36.241Z,17.15
2022-11-29T19:23:04.950Z,16.65
2022-11-29T19:25:36.037Z,16.75
2022-11-29T19:28:12.545Z,16.23
2022-11-29T19:30:43.402Z,16.73
2022-11-29T19:33:14.687Z,18.38
2022-11-29T19:35:43.802Z,18.55
2022-11-29T19:38:13.233Z,19.27
2022-11-29T19:40:42.238Z,18.85
2022-11-29T19:43:12.560Z,17.27
2022-11-29T19:45:41.596Z,18.23
2022-11-29T19:48:10.442Z,18.15
2022-11-29T19:50:39.199Z,17.08
2022-11-29T19:53:08.204Z,18.25
2022-11-29T19:55:43.884Z,19.05
2022-11-29T19:58:14.430Z,19.58
2022-11-29T20:00:43.170Z,19.88
2022-11-29T20:03:12.022Z,20.65
2022-11-29T20:05:40.881Z,20.73
2022-11-29T20:08:09.847Z,21.85
2022-11-29T20:10:38.474Z,20.33
2022-11-29T20:13:07.910Z,19.05
2022-11-29T20:15:37.906Z,17.90
2022-11-29T20:18:07.471Z,18.65
2022-11-29T20:20:36.619Z,19.65
2022-11-29T20:23:05.366Z,18.17
2022-11-29T20:25:36.175Z,17.10
2022-11-29T20:28:13.972Z,17.88
2022-11-29T20:30:44.216Z,30.17
2022-11-29T20:33:17.073Z,19.65
2022-11-29T20:35:45.786Z,20.02
2022-11-29T20:38:19.901Z,18.83
2022-11-29T20:41:02.458Z,20.50
2022-11-29T20:43:38.629Z,20.05
2022-11-29T20:46:09.253Z,19.73
2022-11-29T20:48:38.584Z,19.15
2022-11-29T20:51:08.329Z,20.35
2022-11-29T20:53:39.464Z,19.05
2022-11-29T20:56:08.882Z,21.05
2022-11-29T20:58:37.719Z,20.52
2022-11-29T21:01:08.459Z,20.73
2022-11-29T21:03:37.317Z,20.65
2022-11-29T21:06:07.951Z,22.15
2022-11-29T21:08:37.627Z,20.83
2022-11-29T21:11:08.163Z,20.67
2022-11-29T21:13:37.568Z,23.98
2022-11-29T21:16:08.938Z,20.05
2022-11-29T21:18:38.371Z,20.13
2022-11-29T21:21:21.579Z,20.42
2022-11-29T21:23:56.198Z,20.92
2022-11-29T21:26:29.565Z,19.85
2022-11-29T21:29:13.096Z,20.35
2022-11-29T21:31:43.932Z,20.65
2022-11-29T21:34:12.930Z,19.52
2022-11-29T21:36:42.096Z,21.73
2022-11-29T21:39:16.840Z,20.95
2022-11-29T21:41:45.955Z,21.73
2022-11-29T21:44:14.563Z,20.88
2022-11-29T21:46:45.007Z,21.77
2022-11-29T21:49:13.718Z,22.25
2022-11-29T21:51:42.856Z,22.40
2022-11-29T21:54:11.703Z,21.98
2022-11-29T21:56:40.323Z,22.50
2022-11-29T21:59:09.026Z,21.88
2022-11-29T22:01:37.938Z,21.77
2022-11-29T22:04:08.476Z,22.38
2022-11-29T22:06:37.782Z,20.98
2022-11-29T22:09:07.619Z,22.85
2022-11-29T22:11:36.749Z,22.23
2022-11-29T22:14:18.444Z,23.38
2022-11-29T22:16:49.083Z,24.70
2022-11-29T22:19:20.324Z,24.08
2022-11-29T22:21:50.537Z,23.63
2022-11-29T22:24:20.909Z,22.52
2022-11-29T22:26:50.508Z,23.45
2022-11-29T22:29:19.585Z,23.75
2022-11-29T22:31:52.699Z,24.65
2022-11-29T22:34:25.024Z,25.55
2022-11-29T22:36:54.459Z,23.27
2022-11-29T22:39:24.719Z,23.55
2022-11-29T22:41:55.015Z,23.55
2022-11-29T22:44:24.488Z,24.13
2022-11-29T22:46:53.328Z,24.83
2022-11-29T22:49:23.621Z,24.10
2022-11-29T22:51:52.676Z,24.88
2022-11-29T22:54:21.413Z,22.92
2022-11-29T22:56:50.161Z,24.08
2022-11-29T22:59:19.072Z,23.48
2022-11-29T23:01:48.025Z,25.92
2022-11-29T23:04:16.820Z,24.00
2022-11-29T23:06:47.665Z,23.92
2022-11-29T23:09:19.887Z,25.38
2022-11-29T23:11:52.066Z,25.23
2022-11-29T23:14:21.995Z,24.83
2022-11-29T23:16:51.135Z,24.27
2022-11-29T23:19:20.042Z,25.55
2022-11-29T23:21:50.284Z,24.23
2022-11-29T23:24:19.174Z,24.48
2022-11-29T23:26:48.944Z,24.88
2022-11-29T23:29:19.948Z,25.42
2022-11-29T23:31:51.081Z,25.02
2022-11-29T23:34:19.922Z,23.98
2022-11-29T23:36:52.858Z,24.77
2022-11-29T23:39:22.147Z,22.73
2022-11-29T23:41:50.752Z,26.35
2022-11-29T23:44:19.562Z,24.48
2022-11-29T23:46:48.453Z,26.52
2022-11-29T23:49:17.139Z,24.73
2022-11-29T23:51:45.956Z,25.75
2022-11-29T23:54:15.996Z,26.40
2022-11-29T23:56:44.783Z,25.35
2022-11-29T23:59:13.549Z,25.38
